Wisconsin Logo

Beloit, WI Single Family Real Estate Listings

142 Total Real Estate Listings * Click on table heading to sort
Date Posted Property Type Style Address Price Living Area Lot Size Price/Sq Ft.
2017-06-27 Single Family 1105 Prairie Ave Beloit, WI 53511 $72,000 1,620 sq. ft. 10,890 sq. ft. $44
2017-06-27 Single Family 1880 Park Ave Beloit, WI 53511 $22,500 1,211 sq. ft. 6,055 sq. ft. $19
2017-06-27 Single Family Bungalow 1944 Mound Beloit, WI 53511 $53,900 1,028 sq. ft. 5,663 sq. ft. $52
2017-06-22 Single Family Ranch 1561 Townline Ave Beloit, WI 53511 $99,900 1,232 sq. ft. 7,841 sq. ft. $81
2017-06-22 Single Family Ranch 1804 Townline Ave Beloit, WI 53511 $84,000 1,200 sq. ft. 7,797 sq. ft. $70
2017-06-21 Single Family Colonial 320 Bluff St Beloit, WI 53511 $159,900 2,328 sq. ft. 49,223 sq. ft. $69
2017-06-21 Single Family Colonial 2503 Bootmaker Dr Beloit, WI 53511 $180,000 2,410 sq. ft. 12,153 sq. ft. $75
2017-06-21 Single Family Ranch 1741 Vernon Ave Beloit, WI 53511 $93,000 1,064 sq. ft. 10,019 sq. ft. $87
2017-06-20 Single Family Ranch 1119 11th St Beloit, WI 53511 $83,000 1,135 sq. ft. 4,792 sq. ft. $73
2017-06-20 Single Family 1631 Prairie Ave Beloit, WI 53511 $67,000 1,309 sq. ft. 6,970 sq. ft. $51
2017-06-20 Single Family National Folk/Farm 911 Euclid Ave Beloit, WI 53511 $69,900 1,400 sq. ft. 13,504 sq. ft. $50
2017-06-19 Single Family Ranch 1142 Lincoln Ave Beloit, WI 53511 $99,000 1,380 sq. ft. 6,534 sq. ft. $72
2017-06-19 Single Family Ranch 740 Jeannie Ln Beloit, WI 53511 $124,900 1,560 sq. ft. 9,757 sq. ft. $80
2017-06-18 Single Family Ranch 860 Holiday Dr Beloit, WI 53511 $149,900 1,936 sq. ft. 10,890 sq. ft. $77
2017-06-18 Single Family 3166 Lamplighter Tr Beloit, WI 53511 $379,900 2,747 sq. ft. 40,075 sq. ft. $138
2017-06-16 Single Family National Folk/Farm 1133 8th St Beloit, WI 53511 $89,900 1,608 sq. ft. 6,098 sq. ft. $56
2017-06-15 Single Family Ranch 2000 Merrill St Beloit, WI 53511 $91,900 1,594 sq. ft. 8,276 sq. ft. $58
2017-06-15 Single Family 937 Garfield Ave Beloit, WI 53511 $65,000 1,176 sq. ft. 6,970 sq. ft. $55
2017-06-15 Single Family Colonial 1051 Oak St Beloit, WI 53511 $75,500 1,544 sq. ft. 6,490 sq. ft. $49
2017-06-15 Single Family Ranch 2470 Blarney Stone Dr Beloit, WI 53511 $160,000 2,518 sq. ft. 21,693 sq. ft. $64
2017-06-15 Single Family 1207 Oak St Beloit, WI 53511 $63,000 1,055 sq. ft. 6,098 sq. ft. $60
2017-06-15 Single Family Cape Cod 917 Grant St Beloit, WI 53511 $62,000 1,170 sq. ft. 6,534 sq. ft. $53
2017-06-14 Single Family Ranch 1537 Lincoln Heights Beloit, WI 53511 $114,900 1,848 sq. ft. 16,814 sq. ft. $62
2017-06-14 Single Family Ranch 2386 Lathers Rd Beloit, WI 53511 $219,900 2,722 sq. ft. 38,333 sq. ft. $81
2017-06-14 Single Family Ranch 2513 White Oaks Dr Beloit, WI 53511 $139,900 2,260 sq. ft. 24,219 sq. ft. $62
2017-06-13 Single Family Colonial 1330 Central Ave Beloit, WI 53511 $38,000 1,388 sq. ft. 6,098 sq. ft. $27
2017-06-12 Single Family 410 Portland Ave Beloit, WI 53511 $52,000 1,078 sq. ft. 42,253 sq. ft. $48
2017-06-12 Single Family Bi-Level 3434 Flack Rd Beloit, WI 53511 $119,900 2,372 sq. ft. 116,784 sq. ft. $51
2017-06-11 Single Family Ranch 845 Elaine Dr Beloit, WI 53511 $141,000 1,500 sq. ft. 19,994 sq. ft. $94
2017-06-11 Single Family Ranch 1023 Hackett St Beloit, WI 53511 $44,800 926 sq. ft. 6,098 sq. ft. $48
2017-06-08 Single Family Ranch 2706 Fawn Ct Beloit, WI 53511 $325,000 3,616 sq. ft. 19,166 sq. ft. $90
2017-06-08 Single Family Ranch 713 Dogwood Dr Beloit, WI 53511 $109,900 1,444 sq. ft. 11,021 sq. ft. $76
2017-06-08 Single Family Ranch 617 Masters St Beloit, WI 53511 $99,900 1,820 sq. ft. 16,117 sq. ft. $55
2017-06-08 Single Family 1204 Turner Dr Beloit, WI 53511 $302,644 3,356 sq. ft. 15,246 sq. ft. $90
2017-06-08 Single Family Bungalow 1252 11th St Beloit, WI 53511 $49,900 558 sq. ft. 6,142 sq. ft. $89
2017-06-07 Single Family 1346 Vernon Ave Beloit, WI 53511 $92,000 1,317 sq. ft. 6,098 sq. ft. $70
2017-06-07 Single Family Bungalow 730 Masters St Beloit, WI 53511 $88,900 1,093 sq. ft. 54,886 sq. ft. $81
2017-06-07 Single Family Bungalow 828 Grant St Beloit, WI 53511 $113,900 1,344 sq. ft. 6,273 sq. ft. $85
2017-06-06 Single Family 1801 Vista Dr Beloit, WI 53511 $187,000 2,256 sq. ft. 23,217 sq. ft. $83
2017-06-06 Single Family 857 Cleveland St Beloit, WI 53511 $113,900 1,536 sq. ft. 12,502 sq. ft. $74
2017-06-06 Single Family Transitional 1687 Prairie Ave Beloit, WI 53511 $67,000 1,784 sq. ft. 13,068 sq. ft. $38
2017-06-05 Single Family Ranch 2405 Lookout Dr Beloit, WI 53511 $285,000 2,288 sq. ft. 49,223 sq. ft. $125
2017-06-05 Single Family Transitional 1332 Prairie Ave Beloit, WI 53511 $49,999 1,874 sq. ft. 6,273 sq. ft. $27
2017-06-05 Single Family Contemporary 821 Harrison Ave Beloit, WI 53511 $49,900 1,428 sq. ft. 5,319 sq. ft. $35
2017-06-01 Single Family Ranch 2297 Butlin Dr Beloit, WI 53511 $85,000 1,188 sq. ft. 9,583 sq. ft. $72
2017-05-31 Single Family Contemporary 2230 Wildflower Ct Beloit, WI 53511 $159,900 1,841 sq. ft. 10,890 sq. ft. $87
2017-05-31 Single Family Prairie/Craftsman 757 Vine St Beloit, WI 53511 $63,000 1,309 sq. ft. 3,920 sq. ft. $48
2017-05-31 Single Family Ranch 1840 Mckinley Ave Beloit, WI 53511 $106,500 1,424 sq. ft. 15,246 sq. ft. $75
2017-05-31 Single Family Tri-Level 3458 Fieldcrest Ct Beloit, WI 53511 $192,500 1,840 sq. ft. 11,238 sq. ft. $105
2017-05-26 Single Family Victorian 448 Wisconsin St Beloit, WI 53511 $115,000 1,625 sq. ft. 5,271 sq. ft. $71
2017-05-26 Single Family Ranch 1814 Henderson Ave Beloit, WI 53511 $105,000 1,356 sq. ft. 10,019 sq. ft. $77
2017-05-25 Single Family National Folk/Farm 2584 Madison Rd Beloit, WI 53511 $224,900 1,520 sq. ft. 402,059 sq. ft. $148
2017-05-25 Single Family Ranch 1519 Lincoln Heights Beloit, WI 53511 $97,500 1,368 sq. ft. 6,098 sq. ft. $71
2017-05-25 Single Family 548 Azalea Terr Beloit, WI 53511 $190,000 3,515 sq. ft. 26,310 sq. ft. $54
2017-05-24 Single Family Bungalow 1119 Middle St Beloit, WI 53511 $54,900 796 sq. ft. 6,534 sq. ft. $69
2017-05-23 Single Family Victorian 843 Bluff St Beloit, WI 53511 $115,000 1,800 sq. ft. 8,712 sq. ft. $64
2017-05-23 Single Family Ranch 3194 Jackdaws Dr Beloit, WI 53511 $254,900 1,764 sq. ft. 15,246 sq. ft. $144
2017-05-23 Single Family 523 Vernon Ave Beloit, WI 53511 $63,000 1,368 sq. ft. 18,295 sq. ft. $46
2017-05-23 Single Family Colonial 738 Kenwood Ave Beloit, WI 53511 $63,000 1,256 sq. ft. 6,534 sq. ft. $50
2017-05-22 Single Family Ranch 1721 House St Beloit, WI 53511 $84,000 1,296 sq. ft. 7,144 sq. ft. $65
2017-05-22 Single Family Bungalow 1946 Mound Ave Beloit, WI 53511 $41,900 962 sq. ft. 5,920 sq. ft. $44
2017-05-22 Single Family Victorian 713 St Lawrence Ave Beloit, WI 53511 $52,900 1,721 sq. ft. 9,148 sq. ft. $31
2017-05-19 Single Family Cape Cod 2056 Fairfax Ave Beloit, WI 53511 $34,500 1,056 sq. ft. 10,890 sq. ft. $33
2017-05-19 Single Family Ranch 3193 Warbler Ct Beloit, WI 53511 $249,900 1,716 sq. ft. 15,246 sq. ft. $146
2017-05-19 Single Family 852 Johnson St Beloit, WI 53511 $69,900 1,080 sq. ft. 6,273 sq. ft. $65
2017-05-19 Single Family National Folk/Farm 1226 Central Ave Beloit, WI 53511 $99,900 1,400 sq. ft. 6,186 sq. ft. $71
2017-05-18 Single Family Colonial 1428 Emerson St Beloit, WI 53511 $79,900 1,176 sq. ft. 2,962 sq. ft. $68
2017-05-18 Single Family Bungalow 1207 10th St Beloit, WI 53511 $45,900 660 sq. ft. 6,098 sq. ft. $70
2017-05-18 Single Family Ranch 1718 Johnson St Beloit, WI 53511 $83,500 1,470 sq. ft. 6,970 sq. ft. $57
2017-05-17 Single Family Cape Cod 1212 9th St Beloit, WI 53511 $63,000 1,342 sq. ft. 6,098 sq. ft. $47
2017-05-17 Single Family Ranch 1636 Dewey Ave Beloit, WI 53511 $30,000 572 sq. ft. 5,053 sq. ft. $52
2017-05-17 Single Family Colonial 556 Moore St Beloit, WI 53511 $63,000 1,424 sq. ft. 4,356 sq. ft. $44
2017-05-16 Single Family Ranch 1668 Chapman Ave Beloit, WI 53511 $40,000 1,246 sq. ft. 4,792 sq. ft. $32
2017-05-16 Single Family Colonial 102 8th St Beloit, WI 53511 $67,000 1,162 sq. ft. 5,793 sq. ft. $58
2017-05-16 Single Family National Folk/Farm 710 Vine St Beloit, WI 53511 $49,900 1,240 sq. ft. 1,655 sq. ft. $40
2017-05-15 Single Family Ranch 2590 Riverside Dr Beloit, WI 53511 $110,000 1,010 sq. ft. 20,909 sq. ft. $109
2017-05-15 Single Family Transitional 239 Dawson Ave Beloit, WI 53511 $69,900 1,160 sq. ft. 15,477 sq. ft. $60
2017-05-15 Single Family Bungalow 340 Vernon Ave Beloit, WI 53511 $49,900 1,148 sq. ft. 6,970 sq. ft. $43
2017-05-15 Single Family Contemporary 2661 Ridge Dr Beloit, WI 53511 $299,900 4,027 sq. ft. 43,952 sq. ft. $74
2017-05-12 Single Family National Folk/Farm 1150 Vine St Beloit, WI 53511 $85,500 1,464 sq. ft. 8,581 sq. ft. $58
2017-05-12 Single Family Tri-Level 2120 Elmwood Ave Beloit, WI 53511 $125,000 1,680 sq. ft. 12,371 sq. ft. $74
2017-05-11 Single Family Bungalow 1026 Grant St Beloit, WI 53511 $64,900 1,056 sq. ft. 6,970 sq. ft. $61
2017-05-10 Single Family Bungalow 1615 Manchester St Beloit, WI 53511 $98,500 1,900 sq. ft. 6,403 sq. ft. $52
2017-05-10 Single Family 1414 Porter Ave Beloit, WI 53511 $55,000 1,456 sq. ft. 6,098 sq. ft. $38
2017-05-10 Single Family National Folk/Farm 936 10th St Beloit, WI 53511 $61,000 1,266 sq. ft. 6,534 sq. ft. $48
2017-05-08 Single Family 721 St Lawrence Ave Beloit, WI 53511 $35,900 792 sq. ft. 7,405 sq. ft. $45
2017-05-06 Single Family 757 Euclid Ave Beloit, WI 53511 $89,900 2,041 sq. ft. 13,504 sq. ft. $44
2017-05-04 Single Family Ranch 1648 Grant St Beloit, WI 53511 $55,900 672 sq. ft. 7,841 sq. ft. $83
2017-05-04 Single Family Ranch 2130 Nye School Rd Beloit, WI 53511 $167,000 1,080 sq. ft. 54,668 sq. ft. $155
2017-05-01 Single Family Bungalow 2256 Riverside Dr Beloit, WI 53511 $169,900 1,956 sq. ft. 39,204 sq. ft. $87
2017-05-01 Single Family Bungalow 1159 Division St Beloit, WI 53511 $49,900 824 sq. ft. 38,333 sq. ft. $61
2017-05-01 Single Family Tri-Level 433 Linda Ave Beloit, WI 53511 $154,900 1,740 sq. ft. 18,557 sq. ft. $89
2017-04-30 Single Family Raised Ranch 2866 Riverside Dr Beloit, WI 53511 $259,900 2,232 sq. ft. 18,949 sq. ft. $116
2017-04-30 Single Family Ranch 1903 Frederick St Beloit, WI 53511 $119,900 1,699 sq. ft. 14,810 sq. ft. $71
2017-04-29 Single Family Bungalow 847 Moore St Beloit, WI 53511 $74,900 1,714 sq. ft. 6,186 sq. ft. $44
2017-04-28 Single Family Colonial 1622 Crescent Dr Beloit, WI 53511 $77,900 1,264 sq. ft. 10,454 sq. ft. $62
2017-04-28 Single Family Transitional 1113 Elm St Beloit, WI 53511 $34,900 750 sq. ft. 6,098 sq. ft. $47
2017-04-26 Single Family Ranch 1615 Zick Dr Beloit, WI 53511 $235,000 2,906 sq. ft. 14,985 sq. ft. $81
2017-04-26 Single Family Colonial 714 Olympian Blvd Beloit, WI 53511 $95,000 1,671 sq. ft. 9,148 sq. ft. $57
2017-04-25 Single Family 722 Euclid Ave Beloit, WI 53511 $58,500 1,647 sq. ft. 8,712 sq. ft. $36
2017-04-24 Single Family Contemporary 709 Hill Rd Beloit, WI 53511 $237,900 3,848 sq. ft. 37,897 sq. ft. $62
2017-04-22 Single Family Ranch 3265 Vel Marge Pky Beloit, WI 53511 $235,000 3,492 sq. ft. 44,867 sq. ft. $67
2017-04-18 Single Family Ranch 1916 Lenox Ave Beloit, WI 53511 $39,900 414 sq. ft. 5,227 sq. ft. $96
2017-04-18 Single Family Ranch 1205 Lincoln Ave Beloit, WI 53511 $97,000 1,470 sq. ft. 6,534 sq. ft. $66
2017-04-17 Single Family Cape Cod 3026 Riverside Dr Beloit, WI 53511 $389,000 2,252 sq. ft. 98,446 sq. ft. $173
2017-04-17 Single Family Bungalow 1125 11th St Beloit, WI 53511 $68,600 692 sq. ft. 5,445 sq. ft. $99
2017-04-14 Single Family Contemporary 3375 Riverside Dr Beloit, WI 53511 $379,900 8,790 sq. ft. 112,820 sq. ft. $43
2017-04-12 Single Family Ranch 2661 Sarah Ln Beloit, WI 53511 $247,500 1,859 sq. ft. 18,905 sq. ft. $133
2017-04-11 Single Family Tri-Level 2328 Parkmeadow Dr Beloit, WI 53511 $169,990 1,823 sq. ft. 13,939 sq. ft. $93
2017-04-11 Single Family Cape Cod 1143 Eaton Ave Beloit, WI 53511 $113,900 1,435 sq. ft. 5,663 sq. ft. $79
2017-04-04 Single Family National Folk/Farm 1145 Prairie Ave Beloit, WI 53511 $99,900 1,592 sq. ft. 8,712 sq. ft. $63
2017-04-01 Single Family Colonial 1525 Ridge Rd Beloit, WI 53511 $147,500 1,899 sq. ft. 23,087 sq. ft. $78
2017-04-01 Single Family Tri-Level 1806 Janie Ln Beloit, WI 53511 $109,900 1,458 sq. ft. 9,148 sq. ft. $75
2017-03-26 Single Family Colonial 224 Moore St Beloit, WI 53511 $69,000 1,014 sq. ft. 7,231 sq. ft. $68
2017-03-20 Single Family Colonial 1509 Ridge Rd Beloit, WI 53511 $184,000 2,178 sq. ft. 22,521 sq. ft. $84
2017-03-20 Single Family Cape Cod 709 Merrill St Beloit, WI 53511 $104,900 2,043 sq. ft. 10,454 sq. ft. $51
2017-03-08 Single Family National Folk/Farm 312 Middle St Beloit, WI 53511 $55,000 1,414 sq. ft. 5,227 sq. ft. $39
2017-03-01 Single Family Colonial 2645 Chatsworth Dr Beloit, WI 53511 $207,500 3,672 sq. ft. 15,682 sq. ft. $57
2017-02-20 Single Family Ranch 3069 High Crest Rd Beloit, WI 53511 $169,000 1,772 sq. ft. 4,356 sq. ft. $95
2017-02-16 Single Family Bungalow 743 Garfield Ave Beloit, WI 53511 $63,900 1,383 sq. ft. 6,098 sq. ft. $46
2017-02-10 Single Family Victorian 722 St Lawrence Ave Beloit, WI 53511 $37,900 1,390 sq. ft. 7,405 sq. ft. $27
2017-02-07 Single Family Bungalow 1209 Hackett St Beloit, WI 53511 $65,000 1,134 sq. ft. 6,098 sq. ft. $57
2017-02-06 Single Family 349 Locust St Beloit, WI 53511 $42,000 1,380 sq. ft. 4,356 sq. ft. $30
2017-01-31 Single Family 2224 Grand Ave Beloit, WI 53511 $60,000 1,560 sq. ft. 6,665 sq. ft. $38
2017-01-27 Single Family Colonial 2378 Riverside Dr Beloit, WI 53511 $224,900 1,856 sq. ft. 46,566 sq. ft. $121
2017-01-25 Single Family 1121 Randall St Beloit, WI 53511 $30,000 1,232 sq. ft. 9,583 sq. ft. $24
2016-12-31 Single Family Contemporary 833 Petunia Ln Beloit, WI 53511 $184,900 3,100 sq. ft. 12,284 sq. ft. $60
2016-12-27 Single Family Ranch 2328 Dewey Ave Beloit, WI 53511 $79,900 1,188 sq. ft. 33,106 sq. ft. $67
2016-10-24 Single Family National Folk/Farm 1142 Elm St Beloit, WI 53511 $69,900 1,402 sq. ft. 6,098 sq. ft. $50
2016-10-18 Single Family 2908 Riverside Dr Beloit, WI 53511 $220,000 2,088 sq. ft. 46,217 sq. ft. $105
2016-10-11 Single Family Ranch 2340 Deer Path Way Beloit, WI 53511 $225,000 1,754 sq. ft. 15,246 sq. ft. $128
2016-10-02 Single Family 916 Washburn St Beloit, WI 53511 $29,900 780 sq. ft. 4,792 sq. ft. $38
2016-09-16 Single Family Tudor/Provincial 3654 Bee Ln Beloit, WI 53511 $249,900 3,007 sq. ft. 24,394 sq. ft. $83
2016-09-11 Single Family Ranch 1465 Central Ave Beloit, WI 53511 $49,900 817 sq. ft. 6,142 sq. ft. $61
2016-09-06 Single Family Transitional 1116 Bushnell St Beloit, WI 53511 $79,900 1,496 sq. ft. 2,701 sq. ft. $53
2016-08-18 Single Family Ranch 1002 Ritsher St Beloit, WI 53511 $89,900 1,632 sq. ft. 8,276 sq. ft. $55
2016-08-13 Single Family National Folk/Farm 735 8th St Beloit, WI 53511 $76,900 1,320 sq. ft. 8,712 sq. ft. $58
2016-08-01 Single Family Ranch 3610 Idlewild Dr Beloit, WI 53511 $119,500 1,092 sq. ft. 11,282 sq. ft. $109
2016-06-27 Single Family National Folk/Farm 9408 Hwy 213 Beloit, WI 53511 $110,000 2,200 sq. ft. 197,762 sq. ft. $50
2016-06-26 Single Family Ranch 3635 Eagles Ridge Dr Beloit, WI 53511 $201,800 1,803 sq. ft. 10,890 sq. ft. $112
2016-05-12 Single Family Victorian 800 Wisconsin Ave Beloit, WI 53511 $144,900 2,646 sq. ft. 13,939 sq. ft. $55
2015-04-16 Single Family Ranch 3646 Idlewild Dr Beloit, WI 53511 $254,900 2,124 sq. ft. 51,614 sq. ft. $120